Time;durP1;ratioP1;P1;durP2;ratioP2;P2;SDS_P1;SDS_P2;PMS_P1;PMS_P2;Temp;Humidity;BMP_temperature;BMP_pressure;BME280_temperature;BME280_humidity;BME280_pressure;Samples;Min_cycle;Max_cycle;Signal;HPM_P1;HPM_P2
2022/05/27 00:00:09;;;;;;;3.20;1.60;;;;;;;14.79;87.20;101266.53;678439;29;1401;-80
2022/05/27 00:00:31;;;;;;;4.38;1.80;;;;;;;14.78;87.53;101262.16;679643;29;1196;-79
2022/05/27 00:00:52;;;;;;;3.90;1.90;;;;;;;14.76;86.43;101277.13;676948;29;1273;-79
2022/05/27 00:01:14;;;;;;;4.05;1.85;;;;;;;14.70;86.97;101255.25;675811;29;4544;-79
2022/05/27 00:01:35;;;;;;;4.38;1.88;;;;;;;14.67;86.68;101255.31;672407;29;1660;-79
2022/05/27 00:01:59;;;;;;;5.35;1.90;;;;;;;14.61;87.00;101258.84;672224;29;1436;-80
2022/05/27 00:02:20;;;;;;;5.13;1.80;;;;;;;14.62;87.26;101253.59;670978;29;1004;-79
2022/05/27 00:02:40;;;;;;;4.32;1.70;;;;;;;14.67;87.60;101269.31;672943;29;1587;-80
2022/05/27 00:03:00;;;;;;;4.53;1.60;;;;;;;14.62;88.45;101264.13;675761;29;2259;-79
2022/05/27 00:03:22;;;;;;;3.07;1.60;;;;;;;14.72;87.06;101264.03;676920;29;1346;-79
2022/05/27 00:03:42;;;;;;;3.17;1.70;;;;;;;14.71;87.05;101263.13;674927;29;1417;-79
2022/05/27 00:04:03;;;;;;;3.57;1.90;;;;;;;14.67;86.90;101258.78;673717;29;4309;-79
2022/05/27 00:04:24;;;;;;;3.03;1.70;;;;;;;14.69;87.78;101250.88;673823;29;1451;-81
2022/05/27 00:04:44;;;;;;;3.63;1.70;;;;;;;14.69;87.43;101256.16;674569;29;1570;-79
2022/05/27 00:05:05;;;;;;;3.47;1.80;;;;;;;14.74;87.25;101262.22;674691;29;988;-80
2022/05/27 00:05:25;;;;;;;4.40;1.88;;;;;;;14.69;87.78;101256.16;669301;29;1539;-81
2022/05/27 00:05:50;;;;;;;3.90;1.90;;;;;;;14.72;87.53;101257.00;667720;29;1280;-80
2022/05/27 00:06:10;;;;;;;4.70;1.80;;;;;;;14.68;87.11;101262.31;671324;29;1918;-79
2022/05/27 00:06:31;;;;;;;3.35;1.70;;;;;;;14.69;87.42;101266.66;674185;29;1607;-80
2022/05/27 00:06:52;;;;;;;3.53;1.73;;;;;;;14.69;87.78;101264.03;670876;29;1450;-80
2022/05/27 00:07:12;;;;;;;3.77;1.73;;;;;;;14.68;87.84;101259.69;669793;29;4324;-79
2022/05/27 00:07:32;;;;;;;3.17;1.60;;;;;;;14.70;87.59;101252.63;670522;29;1829;-79
2022/05/27 00:07:53;;;;;;;3.60;1.73;;;;;;;14.64;88.18;101257.06;671610;29;1376;-80
2022/05/27 00:08:13;;;;;;;3.73;1.90;;;;;;;14.70;87.41;101250.00;674801;29;879;-80
2022/05/27 00:08:34;;;;;;;3.23;1.70;;;;;;;14.69;87.23;101257.03;676927;29;2395;-80
2022/05/27 00:08:55;;;;;;;3.63;1.75;;;;;;;14.64;87.64;101253.59;675573;29;1780;-80
2022/05/27 00:09:15;;;;;;;3.50;1.80;;;;;;;14.62;87.62;101255.31;673479;29;1586;-80
2022/05/27 00:09:36;;;;;;;3.93;1.87;;;;;;;14.66;87.82;101259.69;672402;29;1714;-80
2022/05/27 00:09:56;;;;;;;3.40;1.80;;;;;;;14.65;87.71;101252.69;674073;29;1731;-80
2022/05/27 00:10:16;;;;;;;3.27;1.70;;;;;;;14.66;88.10;101258.81;678750;29;4336;-79
2022/05/27 00:10:37;;;;;;;3.57;1.80;;;;;;;14.61;88.37;101257.09;678612;29;998;-80
2022/05/27 00:10:59;;;;;;;3.85;1.90;;;;;;;14.70;87.72;101261.38;683140;28;1293;-80
2022/05/27 00:11:22;;;;;;;4.97;1.73;;;;;;;14.71;87.14;101259.66;684676;28;1296;-79
2022/05/27 00:11:43;;;;;;;4.45;1.83;;;;;;;14.70;87.39;101260.53;682047;28;1369;-80
2022/05/27 00:12:03;;;;;;;4.03;1.80;;;;;;;14.71;86.78;101259.66;685269;28;797;-79
2022/05/27 00:12:24;;;;;;;3.63;1.80;;;;;;;14.69;86.77;101250.88;684494;28;928;-80
2022/05/27 00:12:44;;;;;;;3.70;1.80;;;;;;;14.70;87.22;101247.38;678023;29;1115;-79
2022/05/27 00:13:05;;;;;;;4.57;1.90;;;;;;;14.73;87.05;101256.09;677975;29;4290;-80
2022/05/27 00:13:27;;;;;;;4.40;1.80;;;;;;;14.68;87.56;101252.66;678820;29;988;-80
2022/05/27 00:13:47;;;;;;;2.92;1.70;;;;;;;14.66;87.62;101258.81;677419;29;1380;-80
2022/05/27 00:14:07;;;;;;;3.75;1.90;;;;;;;14.64;88.24;101246.53;675839;29;1531;-80
2022/05/27 00:14:28;;;;;;;4.90;2.00;;;;;;;14.64;88.75;101254.44;675053;29;1341;-80
2022/05/27 00:14:49;;;;;;;4.60;1.80;;;;;;;14.68;88.52;101251.78;676937;29;1334;-81
2022/05/27 00:15:10;;;;;;;3.25;1.50;;;;;;;14.68;88.33;101257.06;675887;29;1332;-80
2022/05/27 00:15:31;;;;;;;3.30;1.70;;;;;;;14.62;87.80;101248.34;676556;29;1691;-78
2022/05/27 00:15:51;;;;;;;4.15;1.90;;;;;;;14.66;88.06;101257.03;679209;29;1709;-80
2022/05/27 00:16:12;;;;;;;4.13;1.83;;;;;;;14.66;87.79;101256.19;679516;28;4320;-79
2022/05/27 00:16:33;;;;;;;2.67;1.65;;;;;;;14.68;87.74;101250.03;680778;29;3958;-80
2022/05/27 00:16:53;;;;;;;3.67;1.93;;;;;;;14.66;87.87;101249.16;680866;29;1044;-80
2022/05/27 00:17:14;;;;;;;5.60;2.30;;;;;;;14.64;87.93;101253.59;677704;29;1596;-80
2022/05/27 00:17:35;;;;;;;4.55;1.70;;;;;;;14.61;88.20;101251.81;680136;29;964;-81
2022/05/27 00:17:55;;;;;;;3.90;1.70;;;;;;;14.60;88.24;101252.69;676907;29;1214;-81
2022/05/27 00:18:16;;;;;;;4.23;1.70;;;;;;;14.59;87.99;101247.47;676696;29;1453;-80
2022/05/27 00:18:36;;;;;;;5.07;1.80;;;;;;;14.58;87.94;101250.97;676128;29;1249;-80
2022/05/27 00:18:58;;;;;;;3.47;1.60;;;;;;;14.57;88.37;101252.75;677324;29;4346;-80
2022/05/27 00:19:18;;;;;;;4.35;1.70;;;;;;;14.60;87.74;101247.44;671466;29;2023;-80
2022/05/27 00:19:39;;;;;;;4.05;1.70;;;;;;;14.66;87.60;101248.28;672294;29;862;-80
2022/05/27 00:19:59;;;;;;;3.07;1.80;;;;;;;14.68;87.50;101246.53;675252;29;1125;-80
2022/05/27 00:20:20;;;;;;;3.37;1.87;;;;;;;14.67;87.44;101248.28;674475;29;1302;-80
2022/05/27 00:20:40;;;;;;;4.32;1.90;;;;;;;14.72;87.44;101249.09;672095;29;933;-81
2022/05/27 00:21:02;;;;;;;4.30;1.80;;;;;;;14.70;87.42;101247.38;673434;29;952;-80
2022/05/27 00:21:22;;;;;;;3.47;1.85;;;;;;;14.73;87.23;101247.31;677269;29;1580;-80
2022/05/27 00:21:43;;;;;;;3.93;1.93;;;;;;;14.72;87.83;101246.47;677719;29;1689;-80
2022/05/27 00:22:04;;;;;;;4.00;1.75;;;;;;;14.71;87.70;101246.47;677835;29;4352;-81
2022/05/27 00:22:24;;;;;;;3.50;1.70;;;;;;;14.62;87.70;101242.16;677571;29;1416;-80
2022/05/27 00:22:44;;;;;;;4.03;1.70;;;;;;;14.59;87.89;101240.47;679778;29;1464;-80
2022/05/27 00:23:06;;;;;;;3.63;1.77;;;;;;;14.56;88.13;101239.63;677136;29;1380;-80
2022/05/27 00:23:26;;;;;;;4.28;1.90;;;;;;;14.51;88.30;101242.31;677319;29;993;-80
2022/05/27 00:23:47;;;;;;;3.20;1.70;;;;;;;14.54;88.22;101244.91;679329;29;1582;-80
2022/05/27 00:24:08;;;;;;;3.20;1.73;;;;;;;14.58;87.96;101237.81;682587;28;1275;-80
2022/05/27 00:24:28;;;;;;;3.17;1.52;;;;;;;14.54;88.13;101242.25;676706;29;1286;-80
2022/05/27 00:24:48;;;;;;;2.83;1.50;;;;;;;14.53;88.33;101235.25;678456;29;1406;-80
2022/05/27 00:25:10;;;;;;;4.73;1.60;;;;;;;14.51;89.03;101233.53;675916;29;4306;-81
2022/05/27 00:25:30;;;;;;;3.75;1.70;;;;;;;14.53;89.28;101240.50;676608;29;1354;-80
2022/05/27 00:25:50;;;;;;;2.73;1.60;;;;;;;14.52;89.15;101241.41;675547;29;1914;-81
2022/05/27 00:26:11;;;;;;;3.42;1.70;;;;;;;14.58;89.19;101251.88;677706;29;1751;-80
2022/05/27 00:26:31;;;;;;;3.20;1.60;;;;;;;14.60;89.12;101231.66;676677;29;1436;-80
2022/05/27 00:26:52;;;;;;;4.67;1.90;;;;;;;14.68;88.81;101241.28;674739;29;1232;-80
2022/05/27 00:27:12;;;;;;;4.87;2.00;;;;;;;14.72;87.83;101235.06;674026;29;1142;-80
2022/05/27 00:27:33;;;;;;;3.30;1.80;;;;;;;14.68;88.24;101236.00;674523;29;1200;-80
2022/05/27 00:27:54;;;;;;;3.13;1.70;;;;;;;14.71;88.11;101234.19;675505;29;1575;-80
2022/05/27 00:28:14;;;;;;;4.20;1.77;;;;;;;14.66;88.73;101236.00;677240;29;4316;-80
2022/05/27 00:28:35;;;;;;;3.40;1.77;;;;;;;14.71;88.01;101235.97;674719;29;1081;-80
2022/05/27 00:28:55;;;;;;;2.97;1.60;;;;;;;14.66;88.35;101230.72;674770;29;1358;-79
2022/05/27 00:29:16;;;;;;;3.72;1.83;;;;;;;14.64;88.43;101236.03;673015;29;1782;-81
2022/05/27 00:29:36;;;;;;;3.20;1.70;;;;;;;14.63;88.79;101238.66;671997;29;1762;-80
2022/05/27 00:29:57;;;;;;;3.58;1.73;;;;;;;14.63;88.55;101229.03;676462;29;1192;-81
2022/05/27 00:30:17;;;;;;;3.67;1.70;;;;;;;14.59;89.18;101240.47;676887;29;1799;-80
2022/05/27 00:30:37;;;;;;;4.28;1.88;;;;;;;14.54;88.80;101237.00;674780;29;1744;-80
2022/05/27 00:30:58;;;;;;;3.53;1.70;;;;;;;14.55;88.41;101229.97;671980;29;4332;-80
2022/05/27 00:31:20;;;;;;;3.33;1.70;;;;;;;14.54;88.63;101234.38;676512;29;1605;-79
2022/05/27 00:31:40;;;;;;;4.15;1.77;;;;;;;14.56;88.40;101232.56;671618;29;1438;-79
2022/05/27 00:32:02;;;;;;;4.43;1.90;;;;;;;14.50;88.39;101240.56;672065;29;1363;-80
2022/05/27 00:32:23;;;;;;;3.65;2.00;;;;;;;14.50;88.52;101232.66;669365;29;1550;-79
2022/05/27 00:32:43;;;;;;;6.00;1.92;;;;;;;14.47;88.44;101232.72;667004;29;1447;-80
2022/05/27 00:33:05;;;;;;;3.90;1.90;;;;;;;14.57;88.63;101230.84;669946;29;1268;-80
2022/05/27 00:33:25;;;;;;;3.63;1.80;;;;;;;14.50;88.98;101237.06;672528;29;1611;-80
2022/05/27 00:33:46;;;;;;;4.63;1.83;;;;;;;14.58;88.91;101236.06;672269;29;1766;-80
2022/05/27 00:34:09;;;;;;;5.05;1.85;;;;;;;14.58;89.15;101230.81;676283;29;4318;-80
2022/05/27 00:34:30;;;;;;;4.22;1.88;;;;;;;14.53;89.35;101224.72;681552;29;1166;-80
2022/05/27 00:34:50;;;;;;;4.43;1.80;;;;;;;14.48;88.90;101230.06;681827;28;1125;-80
2022/05/27 00:35:11;;;;;;;4.40;1.75;;;;;;;14.43;89.93;101225.75;681234;29;1828;-79
2022/05/27 00:35:34;;;;;;;3.83;1.70;;;;;;;14.54;89.65;101229.09;677601;29;1803;-80
2022/05/27 00:35:55;;;;;;;3.50;1.63;;;;;;;14.52;88.67;101238.75;674995;29;1011;-80
2022/05/27 00:36:15;;;;;;;5.07;1.87;;;;;;;14.52;88.20;101230.88;675728;29;1273;-80
2022/05/27 00:36:36;;;;;;;3.88;1.80;;;;;;;14.57;88.49;101238.72;674401;29;1119;-79
2022/05/27 00:36:57;;;;;;;3.58;1.83;;;;;;;14.60;87.93;101236.06;673606;29;4320;-80
2022/05/27 00:37:18;;;;;;;3.30;1.77;;;;;;;14.57;88.46;101234.31;677137;29;1316;-80
2022/05/27 00:37:38;;;;;;;3.47;1.67;;;;;;;14.57;88.55;101236.97;672707;29;1672;-80
2022/05/27 00:37:59;;;;;;;4.38;1.90;;;;;;;14.56;88.88;101247.50;671366;29;1229;-80
2022/05/27 00:38:20;;;;;;;5.55;2.08;;;;;;;14.52;89.11;101240.53;669542;29;1614;-80
2022/05/27 00:38:42;;;;;;;3.67;1.70;;;;;;;14.44;88.50;101237.97;669764;29;1746;-79
2022/05/27 00:39:03;;;;;;;5.00;1.80;;;;;;;14.47;89.48;101237.97;669851;29;4858;-80
2022/05/27 00:39:24;;;;;;;4.30;1.70;;;;;;;14.52;89.03;101233.50;675479;29;1508;-80
2022/05/27 00:39:44;;;;;;;5.38;1.83;;;;;;;14.54;88.68;101234.38;675711;29;1039;-80
2022/05/27 00:40:05;;;;;;;4.40;1.80;;;;;;;14.53;88.58;101235.25;672443;29;4378;-81
2022/05/27 00:40:34;;;;;;;3.05;1.60;;;;;;;14.53;88.63;101237.03;677874;29;1314;-80
2022/05/27 00:40:57;;;;;;;4.90;1.70;;;;;;;14.58;88.30;101241.34;674840;29;1429;-80
2022/05/27 00:41:17;;;;;;;3.33;1.50;;;;;;;14.59;88.47;101243.09;679294;29;1618;-81
2022/05/27 00:41:41;;;;;;;3.57;1.67;;;;;;;14.62;88.28;101239.53;680412;29;1586;-80
2022/05/27 00:42:02;;;;;;;3.67;1.80;;;;;;;14.59;88.48;101231.66;678453;29;1237;-80
2022/05/27 00:42:23;;;;;;;2.67;1.60;;;;;;;14.57;88.55;101234.31;677134;29;1481;-79
2022/05/27 00:42:44;;;;;;;3.13;1.70;;;;;;;14.59;88.34;101235.19;672809;29;2316;-79
2022/05/27 00:43:05;;;;;;;3.88;1.80;;;;;;;14.60;88.35;101236.91;674506;29;4308;-80
2022/05/27 00:43:26;;;;;;;4.28;1.80;;;;;;;14.58;88.44;101238.72;674824;29;1977;-80
2022/05/27 00:43:46;;;;;;;3.70;1.70;;;;;;;14.59;88.97;101232.56;680273;29;1259;-80
2022/05/27 00:44:06;;;;;;;3.92;1.60;;;;;;;14.60;88.81;101236.06;677580;29;1661;-81
2022/05/27 00:44:27;;;;;;;4.00;1.50;;;;;;;14.61;89.13;101230.78;672533;29;1279;-80
2022/05/27 00:44:47;;;;;;;3.93;1.60;;;;;;;14.60;88.86;101238.69;673164;29;1235;-80
2022/05/27 00:45:15;;;;;;;3.10;1.43;;;;;;;14.52;89.02;101240.53;669465;29;2437;-80
2022/05/27 00:45:38;;;;;;;3.08;1.40;;;;;;;14.48;89.22;101234.44;668915;29;1112;-80
2022/05/27 00:46:03;;;;;;;4.07;1.77;;;;;;;14.48;89.66;101229.16;672320;29;4537;-80
2022/05/27 00:46:26;;;;;;;4.30;1.70;;;;;;;14.56;89.71;101232.56;677793;29;1756;-80
2022/05/27 00:46:47;;;;;;;3.63;1.70;;;;;;;14.57;89.32;101226.44;679723;29;2037;-80
2022/05/27 00:47:12;;;;;;;3.50;1.70;;;;;;;14.53;89.08;101232.63;682898;29;1662;-80
2022/05/27 00:47:38;;;;;;;3.72;1.65;;;;;;;14.52;89.28;101237.91;683398;29;1043;-80
2022/05/27 00:47:58;;;;;;;5.32;1.80;;;;;;;14.50;89.11;101232.66;680819;29;1424;-80
2022/05/27 00:48:20;;;;;;;4.93;1.80;;;;;;;14.48;89.34;101239.69;677782;29;1105;-80
2022/05/27 00:48:42;;;;;;;3.78;1.60;;;;;;;14.50;89.03;101237.94;674331;29;1642;-80
2022/05/27 00:49:12;;;;;;;3.55;1.67;;;;;;;14.48;89.37;101235.31;676192;29;4320;-80
2022/05/27 00:49:34;;;;;;;3.80;1.73;;;;;;;14.53;89.45;101231.75;671610;29;1346;-81
2022/05/27 00:49:59;;;;;;;3.45;1.80;;;;;;;14.49;89.59;101236.19;673617;29;1426;-80
2022/05/27 00:50:25;;;;;;;3.90;1.67;;;;;;;14.52;89.75;101240.53;674760;29;1515;-81
2022/05/27 00:50:48;;;;;;;4.10;1.77;;;;;;;14.51;89.65;101228.25;672206;29;1493;-80
2022/05/27 00:51:15;;;;;;;3.53;1.60;;;;;;;14.52;90.10;101224.75;666632;29;1413;-80
2022/05/27 00:51:51;;;;;;;4.03;1.88;;;;;;;14.48;89.93;101232.69;666443;29;1242;-80
2022/05/27 00:52:15;;;;;;;4.68;1.90;;;;;;;14.46;89.26;101234.44;672522;29;4334;-79
2022/05/27 00:52:37;;;;;;;5.60;1.90;;;;;;;14.54;88.85;101231.75;676702;29;1089;-81
2022/05/27 00:53:01;;;;;;;4.28;1.70;;;;;;;14.52;89.54;101230.88;675590;29;1191;-81
2022/05/27 00:53:34;;;;;;;3.80;1.90;;;;;;;14.58;89.55;101236.06;672806;29;1484;-81
2022/05/27 00:54:04;;;;;;;3.97;1.77;;;;;;;14.56;89.93;101232.56;668758;29;1393;-81
2022/05/27 00:54:26;;;;;;;3.50;1.90;;;;;;;14.51;89.64;101233.53;677218;29;2677;-81
2022/05/27 00:54:47;;;;;;;3.75;1.85;;;;;;;14.50;90.08;101226.53;677451;29;1336;-81
2022/05/27 00:55:13;;;;;;;4.03;1.83;;;;;;;14.48;89.67;101232.69;677812;29;4332;-82
2022/05/27 00:55:41;;;;;;;3.40;1.77;;;;;;;14.51;89.75;101234.41;677170;29;1382;-81
2022/05/27 00:56:05;;;;;;;2.90;1.75;;;;;;;14.50;89.78;101237.94;677921;29;1087;-80
2022/05/27 00:56:30;;;;;;;3.17;1.80;;;;;;;14.50;89.83;101223.91;677164;29;906;-80
2022/05/27 00:57:05;;;;;;;3.63;1.73;;;;;;;14.44;89.74;101235.34;678117;29;1171;-80
2022/05/27 00:57:35;;;;;;;4.18;1.88;;;;;;;14.42;89.72;101226.63;679078;29;1411;-79
2022/05/27 00:58:26;;;;;;;5.63;2.00;;;;;;;14.47;89.87;101224.81;681594;29;1673;-80
2022/05/27 00:58:50;;;;;;;4.22;1.95;;;;;;;14.44;90.00;101223.09;676079;29;5085;-80
2022/05/27 00:59:23;;;;;;;5.05;2.13;;;;;;;14.46;89.88;101226.56;676542;29;949;-81
2022/05/27 00:59:54;;;;;;;5.00;2.00;;;;;;;14.45;89.68;101223.94;677299;29;1086;-80
2022/05/27 01:00:19;;;;;;;4.38;2.00;;;;;;;14.43;90.19;101226.59;677951;29;1386;-80
2022/05/27 01:00:40;;;;;;;3.75;1.80;;;;;;;14.42;89.52;101227.47;679219;29;1024;-80
2022/05/27 01:01:00;;;;;;;4.00;1.70;;;;;;;14.39;90.35;101221.41;679187;29;1272;-80
2022/05/27 01:01:21;;;;;;;4.90;1.97;;;;;;;14.40;90.43;101220.50;680962;29;1155;-80
2022/05/27 01:01:42;;;;;;;4.80;2.10;;;;;;;14.38;90.08;101227.56;680482;29;1473;-81
2022/05/27 01:02:02;;;;;;;4.55;1.90;;;;;;;14.37;90.33;101233.69;681038;29;1162;-79
2022/05/27 01:02:23;;;;;;;3.70;2.10;;;;;;;14.43;90.57;101220.47;674978;29;1287;-81
2022/05/27 01:02:44;;;;;;;4.88;2.30;;;;;;;14.47;89.99;101223.03;673550;29;1522;-81
2022/05/27 01:03:07;;;;;;;4.20;1.90;;;;;;;14.44;91.47;101223.09;677409;29;776;-80
2022/05/27 01:03:29;;;;;;;4.90;2.10;;;;;;;14.40;90.46;101226.66;673454;29;1419;-78
2022/05/27 01:03:50;;;;;;;4.97;2.30;;;;;;;14.37;90.22;101220.53;673945;29;916;-80
2022/05/27 01:04:10;;;;;;;4.75;2.30;;;;;;;14.35;90.28;101220.56;676726;29;4280;-80
2022/05/27 01:04:33;;;;;;;5.43;2.30;;;;;;;14.41;90.45;101216.97;677674;29;1143;-81
2022/05/27 01:04:53;;;;;;;4.07;2.03;;;;;;;14.44;90.47;101224.84;677846;29;1180;-81
2022/05/27 01:05:19;;;;;;;4.03;1.90;;;;;;;14.47;90.49;101222.19;678350;29;937;-81
2022/05/27 01:05:46;;;;;;;4.72;2.00;;;;;;;14.54;89.89;101226.47;677909;29;1051;-81
2022/05/27 01:06:06;;;;;;;5.35;1.98;;;;;;;14.51;90.09;101216.00;677341;29;1946;-80
2022/05/27 01:06:27;;;;;;;5.10;2.20;;;;;;;14.52;90.07;101224.75;679114;29;1032;-80
2022/05/27 01:06:48;;;;;;;4.13;2.20;;;;;;;14.45;90.63;101223.94;676310;29;1213;-81
2022/05/27 01:07:08;;;;;;;4.30;2.00;;;;;;;14.47;90.35;101223.03;679879;29;4446;-80
2022/05/27 01:07:29;;;;;;;5.03;2.10;;;;;;;14.43;90.89;101220.47;679447;29;1314;-83
2022/05/27 01:07:53;;;;;;;5.03;1.98;;;;;;;14.42;90.54;101219.59;679727;29;1200;-81
2022/05/27 01:08:17;;;;;;;6.93;2.58;;;;;;;14.47;89.99;101232.72;677416;29;1176;-81
2022/05/27 01:08:38;;;;;;;4.40;2.20;;;;;;;14.44;91.33;101223.09;677612;29;810;-80
2022/05/27 01:08:59;;;;;;;4.35;2.33;;;;;;;14.50;90.15;101216.88;677615;29;1620;-80
2022/05/27 01:09:19;;;;;;;4.10;2.00;;;;;;;14.46;90.45;101223.94;674038;29;1310;-81
2022/05/27 01:09:43;;;;;;;4.47;1.88;;;;;;;14.51;90.29;101223.00;669223;29;1240;-80
2022/05/27 01:10:06;;;;;;;4.65;1.88;;;;;;;14.53;90.11;101226.50;670294;29;5191;-80
2022/05/27 01:10:31;;;;;;;5.40;1.90;;;;;;;14.56;89.88;101208.03;674649;29;1231;-80
2022/05/27 01:11:15;;;;;;;3.90;1.88;;;;;;;14.51;90.35;101216.00;673106;29;1058;-80
2022/05/27 01:11:54;;;;;;;3.63;1.80;;;;;;;14.45;90.83;101218.69;678628;29;928;-81
2022/05/27 01:12:33;;;;;;;3.97;2.00;;;;;;;14.47;90.29;101206.41;678317;29;1464;-80
2022/05/27 01:13:12;;;;;;;5.78;2.10;;;;;;;14.52;90.26;101216.88;679773;29;3753;-80
2022/05/27 01:13:42;;;;;;;5.03;2.00;;;;;;;14.52;89.62;101209.81;679483;29;4780;-81
2022/05/27 01:14:31;;;;;;;4.85;2.10;;;;;;;14.42;90.22;101214.31;680123;29;1538;-80
2022/05/27 01:15:19;;;;;;;5.43;2.10;;;;;;;14.34;90.09;101221.44;679066;29;926;-81
2022/05/27 01:15:55;;;;;;;4.22;1.73;;;;;;;14.36;90.21;101205.63;677914;29;1361;-80
2022/05/27 01:16:54;;;;;;;4.50;1.90;;;;;;;14.30;91.46;101214.47;678407;29;4303;-80
2022/05/27 01:17:35;;;;;;;5.22;2.30;;;;;;;14.29;90.01;101218.00;669452;29;1196;-78
2022/05/27 01:18:01;;;;;;;3.72;1.85;;;;;;;14.29;90.26;101213.63;676002;29;895;-80
2022/05/27 01:20:22;;;;;;;4.70;2.08;;;;;;;14.43;90.17;101209.97;673695;29;4852;-80
2022/05/27 01:21:10;;;;;;;4.07;2.20;;;;;;;14.35;90.55;101217.06;676648;29;1643;-80
2022/05/27 01:21:51;;;;;;;5.03;2.20;;;;;;;14.40;90.28;101209.97;677253;29;1369;-80
2022/05/27 01:22:25;;;;;;;3.88;1.88;;;;;;;14.44;90.55;101211.69;677843;29;1674;-80
2022/05/27 01:23:20;;;;;;;4.68;1.70;;;;;;;14.48;90.40;101208.13;674244;29;1290;-80
2022/05/27 01:24:02;;;;;;;4.13;1.80;;;;;;;14.47;90.36;101204.63;680873;29;1762;-80
2022/05/27 01:24:48;;;;;;;4.00;1.80;;;;;;;14.43;90.65;101209.97;679201;29;1779;-80
2022/05/27 01:25:39;;;;;;;4.65;1.88;;;;;;;14.40;90.66;101209.97;679227;29;4350;-80
2022/05/27 01:26:34;;;;;;;5.40;2.08;;;;;;;14.36;90.42;101209.16;676868;29;1986;-80
2022/05/27 01:27:22;;;;;;;3.22;1.90;;;;;;;14.33;90.52;101213.56;680408;29;1542;-80
2022/05/27 01:28:03;;;;;;;3.80;1.85;;;;;;;14.37;90.64;101204.75;680593;28;1633;-81
2022/05/27 01:28:36;;;;;;;4.10;2.00;;;;;;;14.33;90.66;101209.19;680047;29;5850;-80
2022/05/27 01:29:12;;;;;;;3.88;1.80;;;;;;;14.43;89.60;101213.44;677574;29;1918;-79
2022/05/27 01:29:53;;;;;;;5.40;2.00;;;;;;;14.44;89.76;101211.69;677754;29;1186;-80
2022/05/27 01:30:17;;;;;;;3.22;1.90;;;;;;;14.45;89.79;101213.44;675542;29;1887;-81
2022/05/27 01:30:48;;;;;;;4.47;1.90;;;;;;;14.43;90.57;101212.59;675149;29;1686;-81
2022/05/27 01:31:33;;;;;;;4.25;1.80;;;;;;;14.41;90.50;101216.97;678438;29;4320;-80
2022/05/27 01:32:05;;;;;;;4.15;1.77;;;;;;;14.34;90.53;101210.06;679546;29;1136;-80
2022/05/27 01:32:44;;;;;;;4.35;1.70;;;;;;;14.29;91.14;101218.88;678884;29;1428;-80
2022/05/27 01:33:04;;;;;;;4.78;2.05;;;;;;;14.27;91.08;101214.50;678698;29;1726;-79
2022/05/27 01:34:03;;;;;;;5.50;2.20;;;;;;;14.30;90.46;101207.47;679957;29;1388;-80
2022/05/27 01:34:29;;;;;;;5.38;1.95;;;;;;;14.25;91.18;101211.91;678748;29;6074;-80
2022/05/27 01:35:01;;;;;;;3.72;1.83;;;;;;;14.30;90.39;101203.94;679535;29;1266;-80
2022/05/27 01:35:24;;;;;;;4.85;1.95;;;;;;;14.32;90.72;101202.19;680402;29;1099;-80
2022/05/27 01:36:01;;;;;;;4.40;1.95;;;;;;;14.25;90.80;101213.69;676979;29;1230;-80
2022/05/27 01:36:30;;;;;;;4.28;2.00;;;;;;;14.24;90.82;101210.16;677155;29;2072;-81
2022/05/27 01:37:08;;;;;;;4.38;1.92;;;;;;;14.29;91.17;101207.50;671871;29;1195;-81
2022/05/27 01:37:43;;;;;;;3.58;1.90;;;;;;;14.26;91.29;101208.41;670750;29;4762;-80
2022/05/27 01:38:22;;;;;;;4.55;2.10;;;;;;;14.31;91.50;101209.19;674449;29;1314;-80
2022/05/27 01:39:02;;;;;;;4.90;2.13;;;;;;;14.31;91.40;101205.69;677605;29;3141;-80
2022/05/27 01:39:30;;;;;;;4.07;2.15;;;;;;;14.23;92.01;101200.56;679863;29;1571;-79
2022/05/27 01:40:02;;;;;;;3.60;1.90;;;;;;;14.21;92.03;101204.09;677166;29;1665;-81
2022/05/27 01:40:38;;;;;;;5.10;2.00;;;;;;;14.26;91.62;101208.41;677767;29;4893;-80
2022/05/27 01:41:23;;;;;;;4.68;2.03;;;;;;;14.29;91.10;101202.22;677053;29;1758;-80
2022/05/27 01:41:46;;;;;;;5.45;2.22;;;;;;;14.25;91.82;101211.03;678573;29;1352;-80
2022/05/27 01:42:17;;;;;;;5.53;2.20;;;;;;;14.23;91.32;101207.53;677197;29;1638;-80
2022/05/27 01:42:47;;;;;;;5.30;1.92;;;;;;;14.15;91.93;101205.03;676734;29;1573;-80
2022/05/27 01:43:20;;;;;;;4.70;2.15;;;;;;;14.22;91.83;101200.53;673916;29;4299;-80
2022/05/27 01:43:55;;;;;;;4.60;2.00;;;;;;;14.23;91.74;101205.81;671646;29;1413;-79
2022/05/27 01:44:27;;;;;;;4.35;2.05;;;;;;;14.25;92.23;101208.41;672246;29;1766;-79
2022/05/27 01:44:59;;;;;;;4.68;2.20;;;;;;;14.20;91.97;101205.81;676034;29;2274;-80
2022/05/27 01:45:28;;;;;;;4.20;2.17;;;;;;;14.23;91.96;101213.69;679237;29;1782;-81
2022/05/27 01:45:53;;;;;;;4.70;2.17;;;;;;;14.19;91.55;101201.47;682004;28;2292;-80
2022/05/27 01:46:25;;;;;;;4.88;1.98;;;;;;;14.21;92.73;101206.72;678634;28;4488;-80
2022/05/27 01:46:47;;;;;;;3.95;1.98;;;;;;;14.27;92.30;101215.41;674886;29;1532;-80
2022/05/27 01:47:15;;;;;;;5.55;2.03;;;;;;;14.29;91.25;101208.34;674887;29;1999;-79
2022/05/27 01:48:04;;;;;;;4.47;2.30;;;;;;;14.20;92.06;101208.44;676699;29;2753;-79
2022/05/27 01:48:45;;;;;;;4.60;2.17;;;;;;;14.23;92.23;101211.06;677235;29;1693;-80
2022/05/27 01:49:21;;;;;;;4.88;2.10;;;;;;;14.20;92.34;101205.81;680168;28;4364;-80
2022/05/27 01:49:49;;;;;;;4.63;2.10;;;;;;;14.14;92.13;101203.28;677195;29;1409;-80
2022/05/27 01:50:16;;;;;;;4.38;2.10;;;;;;;14.16;92.78;101201.47;677018;29;1388;-80
2022/05/27 01:51:04;;;;;;;6.43;2.40;;;;;;;14.12;92.46;101210.28;677241;29;2376;-80
2022/05/27 01:51:33;;;;;;;5.65;2.22;;;;;;;14.07;93.63;101206.88;679443;29;1469;-80
2022/05/27 01:51:56;;;;;;;4.63;2.40;;;;;;;14.12;92.90;101202.41;680644;29;2138;-81
2022/05/27 01:52:26;;;;;;;4.68;2.20;;;;;;;14.11;92.92;101191.03;679583;29;4955;-81
2022/05/27 01:53:06;;;;;;;5.03;2.03;;;;;;;14.14;92.14;101203.28;679589;29;1537;-80
2022/05/27 01:53:42;;;;;;;5.90;2.20;;;;;;;14.12;92.94;101208.56;678974;29;1418;-80
2022/05/27 01:54:16;;;;;;;4.15;2.10;;;;;;;14.21;92.38;101210.19;679516;29;2083;-80
2022/05/27 01:54:57;;;;;;;6.18;2.92;;;;;;;14.15;92.48;101205.03;679289;29;1881;-79
2022/05/27 01:55:32;;;;;;;6.00;2.50;;;;;;;14.06;92.92;101198.09;679899;28;5016;-78
2022/05/27 01:56:07;;;;;;;5.72;3.00;;;;;;;13.96;93.74;101202.56;680764;28;1780;-79
2022/05/27 01:56:41;;;;;;;5.95;2.42;;;;;;;13.91;93.99;101195.63;679369;29;1428;-80
2022/05/27 01:57:11;;;;;;;5.03;2.30;;;;;;;13.94;93.90;101206.09;682688;29;1758;-80
2022/05/27 01:57:39;;;;;;;6.10;2.35;;;;;;;14.03;93.69;101195.50;679795;29;1347;-80
2022/05/27 01:58:25;;;;;;;4.50;2.25;;;;;;;14.03;93.35;101202.53;678803;29;4340;-79
2022/05/27 01:58:52;;;;;;;4.00;2.10;;;;;;;14.08;93.20;101192.81;674357;29;1992;-80
2022/05/27 01:59:20;;;;;;;5.13;2.38;;;;;;;14.09;93.15;101199.81;674269;29;1341;-80
2022/05/27 02:00:04;;;;;;;5.13;2.30;;;;;;;14.11;93.48;101204.16;677363;29;2220;-80
2022/05/27 02:00:29;;;;;;;4.97;2.40;;;;;;;14.08;93.27;101192.81;677005;29;1546;-79
2022/05/27 02:00:50;;;;;;;4.85;2.20;;;;;;;14.06;93.17;101197.22;677526;29;1684;-80
2022/05/27 02:01:16;;;;;;;5.68;2.35;;;;;;;14.06;93.02;101200.72;676415;29;4355;-80
2022/05/27 02:01:41;;;;;;;4.35;2.30;;;;;;;14.05;93.08;101190.22;678479;29;1622;-80
2022/05/27 02:02:13;;;;;;;5.22;2.42;;;;;;;14.00;93.10;101192.00;679514;29;1646;-80
2022/05/27 02:02:39;;;;;;;6.18;2.40;;;;;;;14.05;92.92;101187.59;675445;29;1578;-80
2022/05/27 02:03:06;;;;;;;4.85;2.30;;;;;;;14.02;93.70;101185.84;676262;29;1628;-80
2022/05/27 02:03:42;;;;;;;5.13;2.22;;;;;;;14.00;93.95;101195.53;677554;29;1663;-80
2022/05/27 02:04:19;;;;;;;7.03;2.40;;;;;;;13.99;93.64;101188.53;675693;29;4484;-80
2022/05/27 02:04:47;;;;;;;4.88;2.20;;;;;;;14.01;93.58;101191.13;676841;29;1766;-80
2022/05/27 02:05:21;;;;;;;6.43;2.20;;;;;;;14.02;94.08;101195.50;675078;29;1481;-79
2022/05/27 02:06:09;;;;;;;4.00;2.20;;;;;;;14.00;94.22;101189.38;674869;29;1698;-80
2022/05/27 02:06:45;;;;;;;4.10;2.42;;;;;;;13.97;93.56;101187.69;676348;29;1755;-79
2022/05/27 02:07:14;;;;;;;5.45;2.45;;;;;;;14.09;93.02;101186.66;677253;29;4282;-79
2022/05/27 02:07:44;;;;;;;5.57;2.63;;;;;;;14.06;93.17;101200.72;675816;29;1492;-79